sensor_id;sensor_type;location;lat;lon;timestamp;temperature;humidity
774;DHT22;370;48.810;9.150;2022-09-09T00:00:17;16.10;7.30
774;DHT22;370;48.810;9.150;2022-09-09T00:02:49;16.10;8.20
774;DHT22;370;48.810;9.150;2022-09-09T00:05:29;16.10;7.30
774;DHT22;370;48.810;9.150;2022-09-09T00:08:00;16.10;6.90
774;DHT22;370;48.810;9.150;2022-09-09T00:10:32;16.10;6.60
774;DHT22;370;48.810;9.150;2022-09-09T00:13:05;16.20;6.00
774;DHT22;370;48.810;9.150;2022-09-09T00:15:42;16.20;5.40
774;DHT22;370;48.810;9.150;2022-09-09T00:18:18;16.30;5.00
774;DHT22;370;48.810;9.150;2022-09-09T00:20:55;16.30;5.20
774;DHT22;370;48.810;9.150;2022-09-09T00:23:27;16.40;4.90
774;DHT22;370;48.810;9.150;2022-09-09T00:26:02;16.50;4.50
774;DHT22;370;48.810;9.150;2022-09-09T00:28:35;16.60;5.90
774;DHT22;370;48.810;9.150;2022-09-09T00:31:11;16.60;3.90
774;DHT22;370;48.810;9.150;2022-09-09T00:33:39;16.60;4.60
774;DHT22;370;48.810;9.150;2022-09-09T00:36:12;16.60;4.60
774;DHT22;370;48.810;9.150;2022-09-09T00:38:43;16.70;4.30
774;DHT22;370;48.810;9.150;2022-09-09T00:41:17;16.80;3.50
774;DHT22;370;48.810;9.150;2022-09-09T00:43:55;16.90;2.50
774;DHT22;370;48.810;9.150;2022-09-09T00:46:35;17.00;2.30
774;DHT22;370;48.810;9.150;2022-09-09T00:49:10;17.10;2.30
774;DHT22;370;48.810;9.150;2022-09-09T00:51:48;17.10;1.70
774;DHT22;370;48.810;9.150;2022-09-09T00:54:38;17.20;3.30
774;DHT22;370;48.810;9.150;2022-09-09T00:57:25;17.30;1.00
774;DHT22;370;48.810;9.150;2022-09-09T00:59:58;17.40;1.00
774;DHT22;370;48.810;9.150;2022-09-09T01:02:38;17.50;1.00
774;DHT22;370;48.810;9.150;2022-09-09T01:05:10;17.60;1.00
774;DHT22;370;48.810;9.150;2022-09-09T01:07:44;17.70;1.00
774;DHT22;370;48.810;9.150;2022-09-09T01:10:21;17.80;1.00
774;DHT22;370;48.810;9.150;2022-09-09T01:12:54;17.80;1.00
774;DHT22;370;48.810;9.150;2022-09-09T01:15:26;17.70;1.00
774;DHT22;370;48.810;9.150;2022-09-09T01:18:00;17.60;1.00
774;DHT22;370;48.810;9.150;2022-09-09T01:20:30;17.60;1.00
774;DHT22;370;48.810;9.150;2022-09-09T01:23:13;17.60;1.00
774;DHT22;370;48.810;9.150;2022-09-09T01:26:17;17.60;1.00
774;DHT22;370;48.810;9.150;2022-09-09T01:28:47;17.50;1.00
774;DHT22;370;48.810;9.150;2022-09-09T01:31:17;17.60;1.00
774;DHT22;370;48.810;9.150;2022-09-09T01:33:45;17.70;1.00
774;DHT22;370;48.810;9.150;2022-09-09T01:36:15;17.60;1.00
774;DHT22;370;48.810;9.150;2022-09-09T01:38:44;17.50;1.00
774;DHT22;370;48.810;9.150;2022-09-09T01:41:11;17.40;1.00
774;DHT22;370;48.810;9.150;2022-09-09T01:43:39;17.30;1.00
774;DHT22;370;48.810;9.150;2022-09-09T01:46:06;17.30;1.00
774;DHT22;370;48.810;9.150;2022-09-09T01:48:33;17.30;1.00
774;DHT22;370;48.810;9.150;2022-09-09T01:51:00;17.30;1.70
774;DHT22;370;48.810;9.150;2022-09-09T01:53:27;17.30;1.80
774;DHT22;370;48.810;9.150;2022-09-09T01:56:01;17.30;1.00
774;DHT22;370;48.810;9.150;2022-09-09T01:58:36;17.30;1.00
774;DHT22;370;48.810;9.150;2022-09-09T02:01:15;17.40;1.10
774;DHT22;370;48.810;9.150;2022-09-09T02:03:49;17.30;1.10
774;DHT22;370;48.810;9.150;2022-09-09T02:06:25;17.20;1.30
774;DHT22;370;48.810;9.150;2022-09-09T02:08:56;17.00;2.30
774;DHT22;370;48.810;9.150;2022-09-09T02:11:26;16.90;3.30
774;DHT22;370;48.810;9.150;2022-09-09T02:13:56;16.80;4.10
774;DHT22;370;48.810;9.150;2022-09-09T02:16:29;16.70;4.40
774;DHT22;370;48.810;9.150;2022-09-09T02:19:01;16.60;5.00
774;DHT22;370;48.810;9.150;2022-09-09T02:21:30;16.50;5.70
774;DHT22;370;48.810;9.150;2022-09-09T02:24:03;16.50;4.80
774;DHT22;370;48.810;9.150;2022-09-09T02:26:31;16.50;6.80
774;DHT22;370;48.810;9.150;2022-09-09T02:29:03;16.60;5.50
774;DHT22;370;48.810;9.150;2022-09-09T02:31:34;16.60;5.10
774;DHT22;370;48.810;9.150;2022-09-09T02:34:03;16.70;4.50
774;DHT22;370;48.810;9.150;2022-09-09T02:36:33;16.70;5.10
774;DHT22;370;48.810;9.150;2022-09-09T02:39:01;16.70;4.40
774;DHT22;370;48.810;9.150;2022-09-09T02:41:32;16.60;4.50
774;DHT22;370;48.810;9.150;2022-09-09T02:44:00;16.50;4.50
774;DHT22;370;48.810;9.150;2022-09-09T02:46:47;16.50;4.70
774;DHT22;370;48.810;9.150;2022-09-09T02:49:24;16.50;4.90
774;DHT22;370;48.810;9.150;2022-09-09T02:52:01;16.40;5.40
774;DHT22;370;48.810;9.150;2022-09-09T02:54:30;16.40;5.20
774;DHT22;370;48.810;9.150;2022-09-09T02:57:03;16.40;5.30
774;DHT22;370;48.810;9.150;2022-09-09T02:59:30;16.30;6.00
774;DHT22;370;48.810;9.150;2022-09-09T03:01:59;16.20;6.40
774;DHT22;370;48.810;9.150;2022-09-09T03:04:26;16.10;6.70
774;DHT22;370;48.810;9.150;2022-09-09T03:06:53;16.10;7.10
774;DHT22;370;48.810;9.150;2022-09-09T03:09:20;16.10;7.50
774;DHT22;370;48.810;9.150;2022-09-09T03:11:46;16.00;9.10
774;DHT22;370;48.810;9.150;2022-09-09T03:14:14;15.90;9.00
774;DHT22;370;48.810;9.150;2022-09-09T03:16:42;15.80;9.30
774;DHT22;370;48.810;9.150;2022-09-09T03:19:10;15.70;10.40
774;DHT22;370;48.810;9.150;2022-09-09T03:21:36;15.60;11.20
774;DHT22;370;48.810;9.150;2022-09-09T03:24:04;15.60;11.70
774;DHT22;370;48.810;9.150;2022-09-09T03:26:32;15.60;11.90
774;DHT22;370;48.810;9.150;2022-09-09T03:28:58;15.60;12.20
774;DHT22;370;48.810;9.150;2022-09-09T03:31:26;15.60;11.90
774;DHT22;370;48.810;9.150;2022-09-09T03:33:55;15.60;11.80
774;DHT22;370;48.810;9.150;2022-09-09T03:36:24;15.50;12.30
774;DHT22;370;48.810;9.150;2022-09-09T03:38:53;15.40;12.60
774;DHT22;370;48.810;9.150;2022-09-09T03:41:20;15.50;13.70
774;DHT22;370;48.810;9.150;2022-09-09T03:43:49;15.50;12.60
774;DHT22;370;48.810;9.150;2022-09-09T03:46:16;15.60;12.10
774;DHT22;370;48.810;9.150;2022-09-09T03:48:43;15.50;11.80
774;DHT22;370;48.810;9.150;2022-09-09T03:51:10;15.60;11.40
774;DHT22;370;48.810;9.150;2022-09-09T03:53:38;15.60;11.40
774;DHT22;370;48.810;9.150;2022-09-09T03:56:06;15.70;11.20
774;DHT22;370;48.810;9.150;2022-09-09T03:58:34;15.80;9.80
774;DHT22;370;48.810;9.150;2022-09-09T04:01:02;15.90;9.00
774;DHT22;370;48.810;9.150;2022-09-09T04:03:31;16.00;9.10
774;DHT22;370;48.810;9.150;2022-09-09T04:06:01;16.10;8.30
774;DHT22;370;48.810;9.150;2022-09-09T04:08:29;16.20;7.70
774;DHT22;370;48.810;9.150;2022-09-09T04:10:58;16.40;6.90
774;DHT22;370;48.810;9.150;2022-09-09T04:13:28;16.50;6.50
774;DHT22;370;48.810;9.150;2022-09-09T04:15:57;16.60;6.10
774;DHT22;370;48.810;9.150;2022-09-09T04:18:24;16.70;6.50
774;DHT22;370;48.810;9.150;2022-09-09T04:20:52;16.80;6.40
774;DHT22;370;48.810;9.150;2022-09-09T04:23:20;16.90;5.20
774;DHT22;370;48.810;9.150;2022-09-09T04:25:48;17.00;6.10
774;DHT22;370;48.810;9.150;2022-09-09T04:28:17;17.00;4.90
774;DHT22;370;48.810;9.150;2022-09-09T04:30:45;16.90;4.80
774;DHT22;370;48.810;9.150;2022-09-09T04:33:12;16.90;4.90
774;DHT22;370;48.810;9.150;2022-09-09T04:35:44;16.90;5.20
774;DHT22;370;48.810;9.150;2022-09-09T04:38:11;16.90;5.20
774;DHT22;370;48.810;9.150;2022-09-09T04:40:38;16.80;6.20
774;DHT22;370;48.810;9.150;2022-09-09T04:43:08;16.80;5.90
774;DHT22;370;48.810;9.150;2022-09-09T04:45:37;16.80;5.90
774;DHT22;370;48.810;9.150;2022-09-09T04:48:06;16.80;5.90
774;DHT22;370;48.810;9.150;2022-09-09T04:50:32;16.70;6.20
774;DHT22;370;48.810;9.150;2022-09-09T04:53:00;16.60;6.80
774;DHT22;370;48.810;9.150;2022-09-09T04:55:28;16.50;7.50
774;DHT22;370;48.810;9.150;2022-09-09T04:57:55;16.50;7.80
774;DHT22;370;48.810;9.150;2022-09-09T05:00:23;16.40;9.00
774;DHT22;370;48.810;9.150;2022-09-09T05:02:51;16.40;8.20
774;DHT22;370;48.810;9.150;2022-09-09T05:05:17;16.40;8.00
774;DHT22;370;48.810;9.150;2022-09-09T05:07:45;16.30;8.50
774;DHT22;370;48.810;9.150;2022-09-09T05:10:12;16.30;8.20
774;DHT22;370;48.810;9.150;2022-09-09T05:12:42;16.30;8.20
774;DHT22;370;48.810;9.150;2022-09-09T05:15:09;16.30;7.80
774;DHT22;370;48.810;9.150;2022-09-09T05:17:37;16.40;7.40
774;DHT22;370;48.810;9.150;2022-09-09T05:20:06;16.60;6.70
774;DHT22;370;48.810;9.150;2022-09-09T05:22:32;16.70;6.60
774;DHT22;370;48.810;9.150;2022-09-09T05:24:59;16.90;5.90
774;DHT22;370;48.810;9.150;2022-09-09T05:27:27;17.10;4.60
774;DHT22;370;48.810;9.150;2022-09-09T05:29:53;17.20;3.60
774;DHT22;370;48.810;9.150;2022-09-09T05:32:20;17.30;3.70
774;DHT22;370;48.810;9.150;2022-09-09T05:34:47;17.50;1.80
774;DHT22;370;48.810;9.150;2022-09-09T05:37:15;17.70;1.20
774;DHT22;370;48.810;9.150;2022-09-09T05:39:42;17.90;1.30
774;DHT22;370;48.810;9.150;2022-09-09T05:42:09;18.00;1.00
774;DHT22;370;48.810;9.150;2022-09-09T05:44:36;18.20;1.50
774;DHT22;370;48.810;9.150;2022-09-09T05:47:03;18.30;1.00
774;DHT22;370;48.810;9.150;2022-09-09T05:49:30;18.40;1.00
774;DHT22;370;48.810;9.150;2022-09-09T05:51:57;18.60;1.00
774;DHT22;370;48.810;9.150;2022-09-09T05:54:25;18.70;1.00
774;DHT22;370;48.810;9.150;2022-09-09T05:56:52;18.80;1.00
774;DHT22;370;48.810;9.150;2022-09-09T05:59:19;18.80;1.00
774;DHT22;370;48.810;9.150;2022-09-09T06:01:46;19.00;1.00
774;DHT22;370;48.810;9.150;2022-09-09T06:04:13;19.10;1.00
774;DHT22;370;48.810;9.150;2022-09-09T06:06:40;19.20;1.00
774;DHT22;370;48.810;9.150;2022-09-09T06:09:08;19.30;1.00
774;DHT22;370;48.810;9.150;2022-09-09T06:11:38;19.50;1.00
774;DHT22;370;48.810;9.150;2022-09-09T06:14:06;19.60;1.00
774;DHT22;370;48.810;9.150;2022-09-09T06:16:33;19.70;1.00
774;DHT22;370;48.810;9.150;2022-09-09T06:19:03;19.90;1.00
774;DHT22;370;48.810;9.150;2022-09-09T06:21:31;19.90;1.00
774;DHT22;370;48.810;9.150;2022-09-09T06:23:59;19.80;1.00
774;DHT22;370;48.810;9.150;2022-09-09T06:26:27;19.80;1.00
774;DHT22;370;48.810;9.150;2022-09-09T06:28:56;19.70;1.00
774;DHT22;370;48.810;9.150;2022-09-09T06:31:25;19.80;1.00
774;DHT22;370;48.810;9.150;2022-09-09T06:33:56;19.60;1.00
774;DHT22;370;48.810;9.150;2022-09-09T06:36:25;19.50;1.00
774;DHT22;370;48.810;9.150;2022-09-09T06:38:52;19.40;1.00
774;DHT22;370;48.810;9.150;2022-09-09T06:41:21;19.50;1.00
774;DHT22;370;48.810;9.150;2022-09-09T06:43:49;19.60;1.00
774;DHT22;370;48.810;9.150;2022-09-09T06:46:19;19.70;1.00
774;DHT22;370;48.810;9.150;2022-09-09T06:48:47;19.90;1.00
774;DHT22;370;48.810;9.150;2022-09-09T06:51:15;20.40;1.00
774;DHT22;370;48.810;9.150;2022-09-09T06:53:44;20.60;1.00
774;DHT22;370;48.810;9.150;2022-09-09T06:56:19;20.70;1.00
774;DHT22;370;48.810;9.150;2022-09-09T06:58:47;21.00;1.00
774;DHT22;370;48.810;9.150;2022-09-09T07:01:17;21.10;1.00
774;DHT22;370;48.810;9.150;2022-09-09T07:03:46;21.10;1.00
774;DHT22;370;48.810;9.150;2022-09-09T07:06:15;21.00;1.00
774;DHT22;370;48.810;9.150;2022-09-09T07:08:42;21.10;1.00
774;DHT22;370;48.810;9.150;2022-09-09T07:11:10;20.90;1.00
774;DHT22;370;48.810;9.150;2022-09-09T07:13:37;21.10;1.00
774;DHT22;370;48.810;9.150;2022-09-09T07:16:05;21.30;1.00
774;DHT22;370;48.810;9.150;2022-09-09T07:18:35;21.50;1.00
774;DHT22;370;48.810;9.150;2022-09-09T07:21:03;21.60;1.00
774;DHT22;370;48.810;9.150;2022-09-09T07:23:30;21.60;1.00
774;DHT22;370;48.810;9.150;2022-09-09T07:25:57;21.80;1.00
774;DHT22;370;48.810;9.150;2022-09-09T07:28:25;22.00;1.00
774;DHT22;370;48.810;9.150;2022-09-09T07:30:53;22.20;1.00
774;DHT22;370;48.810;9.150;2022-09-09T07:33:21;22.40;1.00
774;DHT22;370;48.810;9.150;2022-09-09T07:36:03;22.70;1.00
774;DHT22;370;48.810;9.150;2022-09-09T07:38:30;23.30;1.00
774;DHT22;370;48.810;9.150;2022-09-09T07:41:03;23.70;1.00
774;DHT22;370;48.810;9.150;2022-09-09T07:43:30;24.20;1.00
774;DHT22;370;48.810;9.150;2022-09-09T07:45:59;24.80;1.00
774;DHT22;370;48.810;9.150;2022-09-09T07:48:26;25.50;1.00
774;DHT22;370;48.810;9.150;2022-09-09T07:51:04;25.60;1.00
774;DHT22;370;48.810;9.150;2022-09-09T07:53:32;25.80;1.00
774;DHT22;370;48.810;9.150;2022-09-09T07:56:03;26.00;1.00
774;DHT22;370;48.810;9.150;2022-09-09T07:58:30;27.30;1.00
774;DHT22;370;48.810;9.150;2022-09-09T08:00:59;28.90;1.00
774;DHT22;370;48.810;9.150;2022-09-09T08:03:25;30.40;1.00
774;DHT22;370;48.810;9.150;2022-09-09T08:05:52;31.50;1.00
774;DHT22;370;48.810;9.150;2022-09-09T08:08:20;32.50;1.00
774;DHT22;370;48.810;9.150;2022-09-09T08:10:47;33.40;1.00
774;DHT22;370;48.810;9.150;2022-09-09T08:13:14;33.40;1.00
774;DHT22;370;48.810;9.150;2022-09-09T08:15:41;34.30;1.00
774;DHT22;370;48.810;9.150;2022-09-09T08:18:09;35.40;1.00
774;DHT22;370;48.810;9.150;2022-09-09T08:20:37;35.90;1.00
774;DHT22;370;48.810;9.150;2022-09-09T08:23:05;36.70;1.00
774;DHT22;370;48.810;9.150;2022-09-09T08:25:35;37.30;1.00
774;DHT22;370;48.810;9.150;2022-09-09T08:28:02;38.40;1.00
774;DHT22;370;48.810;9.150;2022-09-09T08:30:30;38.40;1.00
774;DHT22;370;48.810;9.150;2022-09-09T08:32:57;39.20;1.00
774;DHT22;370;48.810;9.150;2022-09-09T08:35:25;40.30;1.00
774;DHT22;370;48.810;9.150;2022-09-09T08:37:54;41.20;1.00
774;DHT22;370;48.810;9.150;2022-09-09T08:40:28;39.90;1.00
774;DHT22;370;48.810;9.150;2022-09-09T08:42:58;39.00;1.00
774;DHT22;370;48.810;9.150;2022-09-09T08:45:33;38.30;1.00
774;DHT22;370;48.810;9.150;2022-09-09T08:48:16;38.80;1.00
774;DHT22;370;48.810;9.150;2022-09-09T08:50:49;37.90;1.00
774;DHT22;370;48.810;9.150;2022-09-09T08:53:19;36.00;1.00
774;DHT22;370;48.810;9.150;2022-09-09T08:55:51;36.90;1.00
774;DHT22;370;48.810;9.150;2022-09-09T08:58:23;37.90;1.00
774;DHT22;370;48.810;9.150;2022-09-09T09:01:00;37.30;1.00
774;DHT22;370;48.810;9.150;2022-09-09T09:03:35;36.10;1.00
774;DHT22;370;48.810;9.150;2022-09-09T09:06:17;35.70;1.00
774;DHT22;370;48.810;9.150;2022-09-09T09:08:50;37.60;1.00
774;DHT22;370;48.810;9.150;2022-09-09T09:11:18;38.10;1.00
774;DHT22;370;48.810;9.150;2022-09-09T09:13:51;37.10;1.00
774;DHT22;370;48.810;9.150;2022-09-09T09:16:23;36.50;1.00
774;DHT22;370;48.810;9.150;2022-09-09T09:18:53;36.10;1.00
774;DHT22;370;48.810;9.150;2022-09-09T09:21:32;34.60;1.00
774;DHT22;370;48.810;9.150;2022-09-09T09:24:01;32.90;1.00
774;DHT22;370;48.810;9.150;2022-09-09T09:26:31;30.90;1.00
774;DHT22;370;48.810;9.150;2022-09-09T09:29:03;29.20;1.00
774;DHT22;370;48.810;9.150;2022-09-09T09:31:34;28.00;1.00
774;DHT22;370;48.810;9.150;2022-09-09T09:34:01;27.00;1.00
774;DHT22;370;48.810;9.150;2022-09-09T09:36:34;25.80;1.00
774;DHT22;370;48.810;9.150;2022-09-09T09:39:03;25.10;1.00
774;DHT22;370;48.810;9.150;2022-09-09T09:41:32;24.70;1.00
774;DHT22;370;48.810;9.150;2022-09-09T09:44:01;24.40;1.00
774;DHT22;370;48.810;9.150;2022-09-09T09:46:28;24.70;1.00
774;DHT22;370;48.810;9.150;2022-09-09T09:48:59;25.30;1.00
774;DHT22;370;48.810;9.150;2022-09-09T09:51:27;28.20;1.00
774;DHT22;370;48.810;9.150;2022-09-09T09:54:08;31.30;1.00
774;DHT22;370;48.810;9.150;2022-09-09T09:56:36;34.30;1.00
774;DHT22;370;48.810;9.150;2022-09-09T09:59:04;36.20;1.00
774;DHT22;370;48.810;9.150;2022-09-09T10:01:32;36.70;1.00
774;DHT22;370;48.810;9.150;2022-09-09T10:04:02;38.60;1.00
774;DHT22;370;48.810;9.150;2022-09-09T10:06:31;38.80;1.00
774;DHT22;370;48.810;9.150;2022-09-09T10:08:59;39.50;1.00
774;DHT22;370;48.810;9.150;2022-09-09T10:11:44;40.20;1.00
774;DHT22;370;48.810;9.150;2022-09-09T10:14:20;41.20;1.00
774;DHT22;370;48.810;9.150;2022-09-09T10:16:58;43.10;1.00
774;DHT22;370;48.810;9.150;2022-09-09T10:19:31;44.10;1.00
774;DHT22;370;48.810;9.150;2022-09-09T10:22:16;44.40;1.00
774;DHT22;370;48.810;9.150;2022-09-09T10:30:54;46.90;1.00
774;DHT22;370;48.810;9.150;2022-09-09T10:33:30;47.30;1.00
774;DHT22;370;48.810;9.150;2022-09-09T10:36:05;46.30;1.00
774;DHT22;370;48.810;9.150;2022-09-09T10:38:39;44.80;1.00
774;DHT22;370;48.810;9.150;2022-09-09T10:41:16;42.20;1.00
774;DHT22;370;48.810;9.150;2022-09-09T10:44:06;42.00;1.00
774;DHT22;370;48.810;9.150;2022-09-09T10:46:52;42.80;1.00
774;DHT22;370;48.810;9.150;2022-09-09T10:49:34;41.50;1.00
774;DHT22;370;48.810;9.150;2022-09-09T10:52:09;39.10;1.00
774;DHT22;370;48.810;9.150;2022-09-09T10:54:48;37.80;1.00
774;DHT22;370;48.810;9.150;2022-09-09T10:57:22;36.00;1.00
774;DHT22;370;48.810;9.150;2022-09-09T10:59:53;35.00;1.00
774;DHT22;370;48.810;9.150;2022-09-09T11:02:27;34.40;1.00
774;DHT22;370;48.810;9.150;2022-09-09T11:04:57;35.00;1.00
774;DHT22;370;48.810;9.150;2022-09-09T11:07:29;37.20;1.00
774;DHT22;370;48.810;9.150;2022-09-09T11:10:02;38.90;1.00
774;DHT22;370;48.810;9.150;2022-09-09T11:12:35;36.70;1.00
774;DHT22;370;48.810;9.150;2022-09-09T11:15:06;33.60;1.00
774;DHT22;370;48.810;9.150;2022-09-09T11:17:42;30.90;1.00
774;DHT22;370;48.810;9.150;2022-09-09T11:20:12;28.20;1.00
774;DHT22;370;48.810;9.150;2022-09-09T11:22:43;26.70;1.00
774;DHT22;370;48.810;9.150;2022-09-09T11:25:16;25.70;1.00
774;DHT22;370;48.810;9.150;2022-09-09T11:27:56;24.90;1.00
774;DHT22;370;48.810;9.150;2022-09-09T11:30:33;24.30;1.00
774;DHT22;370;48.810;9.150;2022-09-09T11:33:34;24.20;1.00
774;DHT22;370;48.810;9.150;2022-09-09T11:36:16;24.50;1.00
774;DHT22;370;48.810;9.150;2022-09-09T11:38:50;25.00;1.00
774;DHT22;370;48.810;9.150;2022-09-09T11:41:20;24.90;1.00
774;DHT22;370;48.810;9.150;2022-09-09T11:43:48;24.80;1.00
774;DHT22;370;48.810;9.150;2022-09-09T11:46:17;24.70;1.00
774;DHT22;370;48.810;9.150;2022-09-09T11:48:58;24.50;1.00
774;DHT22;370;48.810;9.150;2022-09-09T11:51:27;24.20;1.00
774;DHT22;370;48.810;9.150;2022-09-09T11:53:56;23.90;1.00
774;DHT22;370;48.810;9.150;2022-09-09T11:56:26;23.80;1.00
774;DHT22;370;48.810;9.150;2022-09-09T11:58:56;23.80;1.00
774;DHT22;370;48.810;9.150;2022-09-09T12:01:29;23.80;1.00
774;DHT22;370;48.810;9.150;2022-09-09T12:04:20;23.90;1.00
774;DHT22;370;48.810;9.150;2022-09-09T12:06:56;24.30;1.00
774;DHT22;370;48.810;9.150;2022-09-09T12:09:27;25.20;1.00
774;DHT22;370;48.810;9.150;2022-09-09T12:12:06;26.50;1.00
774;DHT22;370;48.810;9.150;2022-09-09T12:14:37;27.60;1.00
774;DHT22;370;48.810;9.150;2022-09-09T12:17:18;28.90;1.00
774;DHT22;370;48.810;9.150;2022-09-09T12:19:47;30.10;1.00
774;DHT22;370;48.810;9.150;2022-09-09T12:22:23;32.40;1.00
774;DHT22;370;48.810;9.150;2022-09-09T12:24:56;36.20;1.00
774;DHT22;370;48.810;9.150;2022-09-09T12:27:30;39.70;1.00
774;DHT22;370;48.810;9.150;2022-09-09T12:30:02;41.80;1.00
774;DHT22;370;48.810;9.150;2022-09-09T12:32:29;43.50;1.00
774;DHT22;370;48.810;9.150;2022-09-09T12:34:59;44.40;1.00
774;DHT22;370;48.810;9.150;2022-09-09T12:37:31;44.00;1.00
774;DHT22;370;48.810;9.150;2022-09-09T12:40:01;43.30;1.00
774;DHT22;370;48.810;9.150;2022-09-09T12:42:30;41.30;1.00
774;DHT22;370;48.810;9.150;2022-09-09T12:44:59;38.90;1.00
774;DHT22;370;48.810;9.150;2022-09-09T12:47:40;37.10;1.00
774;DHT22;370;48.810;9.150;2022-09-09T12:50:19;35.90;1.00
774;DHT22;370;48.810;9.150;2022-09-09T12:52:48;36.10;1.00
774;DHT22;370;48.810;9.150;2022-09-09T12:55:18;34.60;1.00
774;DHT22;370;48.810;9.150;2022-09-09T12:57:45;34.60;1.00
774;DHT22;370;48.810;9.150;2022-09-09T13:00:18;36.00;1.00
774;DHT22;370;48.810;9.150;2022-09-09T13:02:48;36.00;1.00
774;DHT22;370;48.810;9.150;2022-09-09T13:05:38;37.50;1.00
774;DHT22;370;48.810;9.150;2022-09-09T13:08:14;38.60;1.00
774;DHT22;370;48.810;9.150;2022-09-09T13:10:46;39.70;1.00
774;DHT22;370;48.810;9.150;2022-09-09T13:13:14;41.20;1.00
774;DHT22;370;48.810;9.150;2022-09-09T13:15:49;41.90;1.00
774;DHT22;370;48.810;9.150;2022-09-09T13:18:18;41.60;1.00
774;DHT22;370;48.810;9.150;2022-09-09T13:20:48;41.80;1.00
774;DHT22;370;48.810;9.150;2022-09-09T13:23:18;41.40;1.00
774;DHT22;370;48.810;9.150;2022-09-09T13:25:53;41.40;1.00
774;DHT22;370;48.810;9.150;2022-09-09T13:28:22;41.60;1.00
774;DHT22;370;48.810;9.150;2022-09-09T13:30:56;40.90;1.00
774;DHT22;370;48.810;9.150;2022-09-09T13:33:30;41.70;1.00
774;DHT22;370;48.810;9.150;2022-09-09T13:36:02;42.90;1.00
774;DHT22;370;48.810;9.150;2022-09-09T13:38:33;42.00;1.00
774;DHT22;370;48.810;9.150;2022-09-09T13:41:03;40.20;1.00
774;DHT22;370;48.810;9.150;2022-09-09T13:43:33;40.30;1.00
774;DHT22;370;48.810;9.150;2022-09-09T13:46:23;40.40;1.00
774;DHT22;370;48.810;9.150;2022-09-09T13:48:54;39.90;1.00
774;DHT22;370;48.810;9.150;2022-09-09T13:51:30;37.80;1.00
774;DHT22;370;48.810;9.150;2022-09-09T13:53:58;36.10;1.00
774;DHT22;370;48.810;9.150;2022-09-09T13:56:26;34.50;1.00
774;DHT22;370;48.810;9.150;2022-09-09T13:58:52;33.50;1.00
774;DHT22;370;48.810;9.150;2022-09-09T14:01:19;33.50;1.00
774;DHT22;370;48.810;9.150;2022-09-09T14:03:46;33.50;1.00
774;DHT22;370;48.810;9.150;2022-09-09T14:06:13;32.50;1.00
774;DHT22;370;48.810;9.150;2022-09-09T14:08:41;31.50;1.00
774;DHT22;370;48.810;9.150;2022-09-09T14:11:11;31.10;1.00
774;DHT22;370;48.810;9.150;2022-09-09T14:13:38;31.50;1.00
774;DHT22;370;48.810;9.150;2022-09-09T14:16:14;33.20;1.00
774;DHT22;370;48.810;9.150;2022-09-09T14:18:41;33.40;1.00
774;DHT22;370;48.810;9.150;2022-09-09T14:21:09;34.30;1.00
774;DHT22;370;48.810;9.150;2022-09-09T14:23:36;35.20;1.00
774;DHT22;370;48.810;9.150;2022-09-09T14:26:05;36.20;1.00
774;DHT22;370;48.810;9.150;2022-09-09T14:28:33;37.30;1.00
774;DHT22;370;48.810;9.150;2022-09-09T14:31:00;37.40;1.00
774;DHT22;370;48.810;9.150;2022-09-09T14:33:27;37.90;1.00
774;DHT22;370;48.810;9.150;2022-09-09T14:35:56;38.00;1.00
774;DHT22;370;48.810;9.150;2022-09-09T14:38:23;37.60;1.00
774;DHT22;370;48.810;9.150;2022-09-09T14:40:50;37.20;1.00
774;DHT22;370;48.810;9.150;2022-09-09T14:43:18;35.40;1.00
774;DHT22;370;48.810;9.150;2022-09-09T14:45:45;33.80;1.00
774;DHT22;370;48.810;9.150;2022-09-09T14:48:13;33.00;1.00
774;DHT22;370;48.810;9.150;2022-09-09T14:50:41;32.40;1.00
774;DHT22;370;48.810;9.150;2022-09-09T14:53:08;33.10;1.00
774;DHT22;370;48.810;9.150;2022-09-09T14:55:35;34.70;1.00
774;DHT22;370;48.810;9.150;2022-09-09T14:58:02;34.30;1.00
774;DHT22;370;48.810;9.150;2022-09-09T15:00:30;33.60;1.00
774;DHT22;370;48.810;9.150;2022-09-09T15:02:57;33.00;1.00
774;DHT22;370;48.810;9.150;2022-09-09T15:05:24;31.90;1.00
774;DHT22;370;48.810;9.150;2022-09-09T15:07:51;31.30;1.00
774;DHT22;370;48.810;9.150;2022-09-09T15:10:17;30.60;1.00
774;DHT22;370;48.810;9.150;2022-09-09T15:12:44;29.60;1.00
774;DHT22;370;48.810;9.150;2022-09-09T15:15:11;28.60;1.00
774;DHT22;370;48.810;9.150;2022-09-09T15:17:40;27.60;1.00
774;DHT22;370;48.810;9.150;2022-09-09T15:20:08;26.90;1.00
774;DHT22;370;48.810;9.150;2022-09-09T15:26:25;26.00;1.00
774;DHT22;370;48.810;9.150;2022-09-09T15:28:53;25.60;1.00
774;DHT22;370;48.810;9.150;2022-09-09T15:31:22;25.50;1.00
774;DHT22;370;48.810;9.150;2022-09-09T15:33:54;25.30;1.00
774;DHT22;370;48.810;9.150;2022-09-09T15:36:27;25.00;1.00
774;DHT22;370;48.810;9.150;2022-09-09T15:38:55;25.10;1.00
774;DHT22;370;48.810;9.150;2022-09-09T15:41:23;25.20;1.00
774;DHT22;370;48.810;9.150;2022-09-09T15:43:51;25.20;1.00
774;DHT22;370;48.810;9.150;2022-09-09T15:46:24;25.10;1.00
774;DHT22;370;48.810;9.150;2022-09-09T15:48:55;24.80;1.00
774;DHT22;370;48.810;9.150;2022-09-09T15:51:25;24.50;1.00
774;DHT22;370;48.810;9.150;2022-09-09T15:53:57;24.20;1.00
774;DHT22;370;48.810;9.150;2022-09-09T15:56:25;24.00;1.00
774;DHT22;370;48.810;9.150;2022-09-09T15:58:52;23.80;1.00
774;DHT22;370;48.810;9.150;2022-09-09T16:01:19;23.60;1.00
774;DHT22;370;48.810;9.150;2022-09-09T16:03:46;23.50;1.00
774;DHT22;370;48.810;9.150;2022-09-09T16:06:17;23.30;1.00
774;DHT22;370;48.810;9.150;2022-09-09T16:08:48;23.20;1.00
774;DHT22;370;48.810;9.150;2022-09-09T16:11:17;23.00;1.00
774;DHT22;370;48.810;9.150;2022-09-09T16:13:46;22.90;1.00
774;DHT22;370;48.810;9.150;2022-09-09T16:16:15;22.80;1.00
774;DHT22;370;48.810;9.150;2022-09-09T16:18:44;22.60;1.00
774;DHT22;370;48.810;9.150;2022-09-09T16:21:14;22.50;1.00
774;DHT22;370;48.810;9.150;2022-09-09T16:23:43;22.50;1.00
774;DHT22;370;48.810;9.150;2022-09-09T16:26:11;22.40;1.00
774;DHT22;370;48.810;9.150;2022-09-09T16:28:39;22.40;1.00
774;DHT22;370;48.810;9.150;2022-09-09T16:31:06;22.30;1.00
774;DHT22;370;48.810;9.150;2022-09-09T16:33:33;22.00;1.00
774;DHT22;370;48.810;9.150;2022-09-09T16:36:05;21.70;1.00
774;DHT22;370;48.810;9.150;2022-09-09T16:38:32;21.40;1.00
774;DHT22;370;48.810;9.150;2022-09-09T16:41:01;21.10;1.00
774;DHT22;370;48.810;9.150;2022-09-09T16:43:27;20.90;1.00
774;DHT22;370;48.810;9.150;2022-09-09T16:45:54;20.80;1.00
774;DHT22;370;48.810;9.150;2022-09-09T16:48:21;20.70;1.00
774;DHT22;370;48.810;9.150;2022-09-09T16:50:48;20.70;1.00
774;DHT22;370;48.810;9.150;2022-09-09T16:53:15;20.70;1.00
774;DHT22;370;48.810;9.150;2022-09-09T16:55:41;20.60;1.00
774;DHT22;370;48.810;9.150;2022-09-09T16:58:14;20.30;1.00
774;DHT22;370;48.810;9.150;2022-09-09T17:00:41;20.10;1.00
774;DHT22;370;48.810;9.150;2022-09-09T17:03:14;19.90;1.00
774;DHT22;370;48.810;9.150;2022-09-09T17:05:44;19.80;1.00
774;DHT22;370;48.810;9.150;2022-09-09T17:08:11;19.60;1.00
774;DHT22;370;48.810;9.150;2022-09-09T17:10:40;19.50;1.00
774;DHT22;370;48.810;9.150;2022-09-09T17:13:08;19.40;1.00
774;DHT22;370;48.810;9.150;2022-09-09T17:15:40;19.30;1.00
774;DHT22;370;48.810;9.150;2022-09-09T17:18:08;19.20;1.00
774;DHT22;370;48.810;9.150;2022-09-09T17:20:36;19.00;1.00
774;DHT22;370;48.810;9.150;2022-09-09T17:23:03;18.80;1.00